Terminal Aerodrome Forecast
Issued by NWS Upton, NY

Home | Current Version | Previous Version | Text Only | Print | Product List | Glossary On
Versions: 1 2 3 4 5 6 7 8 9 10 11 12 13 14 15 16 17 18 19 20 21 22 23 24 25 26 27 28 29 30 31 32
000
FTUS41 KOKX 242045 AAB
TAFISP
TAF AMD
KISP 242045Z 2421/2518 02013KT P6SM BKN011 OVC019
      TEMPO 2422/2424 SCT020 BKN035
     FM250000 03007KT P6SM OVC018
     FM250200 03005KT P6SM VCSH OVC018
     FM250700 05008KT 4SM BR VCSH OVC008
     FM250800 05009KT 4SM BR OVC008
     FM251200 05010KT P6SM OVC008
     FM251600 04009G15KT P6SM OVC015=

USA.gov is the U.S. government's official web portal to all federal, state and local government web resources and services.